Orion, Arkansas
Current Conditions -  °F | °C
As of 12:53 PM on Thursday 18 Dec 2014 (Local Time) from KLIT Reporting Station
Haze Haze  
Wind Chill: 42°   Ceiling: 600
Heat Index: 42°   Visibility: 4mi
Dew Point: 38°   Wind: 3mph
Humidity: 85%   Direction: 70°ENE
Pressure: 30.2"   Gusts: NA
Location:  34.4462°N, 92.1621°W
Report Text: KLIT 181853Z 07003KT 4SM BR OVC006 06/03 A3020 RMK AO2 SLP229 T00560033
Loading
Personal Weather Stations






























Interactive Weather Map New forecast layout! Learn more

10-Day Weather Forecast

Advertisements
Track Severe Weather on mobile